Time;durP1;ratioP1;P1;durP2;ratioP2;P2;SDS_P1;SDS_P2;PMS_P1;PMS_P2;Temp;Humidity;BMP_temperature;BMP_pressure;BME280_temperature;BME280_humidity;BME280_pressure;Samples;Min_cycle;Max_cycle;Signal;HPM_P1;HPM_P2
2022/05/19 00:01:46;;;;;;;7.50;4.00;;;18.80;99.90;;;;;;5115713;28;20153;-70
2022/05/19 00:04:13;;;;;;;5.97;4.25;;;18.90;99.90;;;;;;5115874;28;20240;-71
2022/05/19 00:06:38;;;;;;;6.20;3.80;;;18.90;99.90;;;;;;5114883;28;20168;-70
2022/05/19 00:09:04;;;;;;;6.13;3.92;;;18.90;99.90;;;;;;5115111;28;20638;-70
2022/05/19 00:11:32;;;;;;;4.72;3.63;;;18.90;99.90;;;;;;5114925;28;20229;-70
2022/05/19 00:13:59;;;;;;;6.38;4.15;;;18.90;99.90;;;;;;5114967;28;20249;-70
2022/05/19 00:16:25;;;;;;;10.18;4.13;;;18.90;99.90;;;;;;5115301;28;20586;-70
2022/05/19 00:18:51;;;;;;;5.95;3.70;;;18.90;99.90;;;;;;5096733;28;20177;-70
2022/05/19 00:21:17;;;;;;;5.68;3.90;;;18.90;99.90;;;;;;5096672;28;20173;-70
2022/05/19 00:23:42;;;;;;;6.53;3.63;;;18.90;99.90;;;;;;5114684;28;20173;-70
2022/05/19 00:26:08;;;;;;;4.38;3.95;;;18.90;99.90;;;;;;5114736;28;20243;-70
2022/05/19 00:28:34;;;;;;;6.10;3.72;;;18.90;99.90;;;;;;5114637;28;20204;-70
2022/05/19 00:31:00;;;;;;;7.68;4.18;;;18.90;99.90;;;;;;5114665;28;20176;-70
2022/05/19 00:33:26;;;;;;;6.25;3.72;;;18.90;99.90;;;;;;5114803;28;20168;-70
2022/05/19 00:35:51;;;;;;;5.65;3.80;;;18.90;99.90;;;;;;5114484;28;20176;-70
2022/05/19 00:38:17;;;;;;;8.43;3.88;;;19.00;99.90;;;;;;5114212;28;20571;-70
2022/05/19 00:40:48;;;;;;;8.18;4.28;;;19.00;99.90;;;;;;5114530;28;20637;-70
2022/05/19 00:43:15;;;;;;;4.95;3.47;;;19.00;99.90;;;;;;5114743;28;20169;-70
2022/05/19 00:45:54;;;;;;;5.80;4.03;;;19.00;99.90;;;;;;5114782;28;20247;-70
2022/05/19 00:48:26;;;;;;;7.78;4.47;;;19.00;99.90;;;;;;5096082;28;20212;-70
2022/05/19 00:50:59;;;;;;;5.50;3.63;;;19.00;99.90;;;;;;5114782;28;20188;-70
2022/05/19 00:53:28;;;;;;;8.10;4.35;;;19.10;99.90;;;;;;5114118;28;20263;-70
2022/05/19 00:55:55;;;;;;;5.95;4.07;;;19.10;99.90;;;;;;5113648;28;20663;-70
2022/05/19 00:58:31;;;;;;;5.32;3.70;;;19.20;99.90;;;;;;5096001;28;20208;-70
2022/05/19 01:00:57;;;;;;;5.82;4.28;;;19.20;99.90;;;;;;5096130;28;20220;-70
2022/05/19 01:03:26;;;;;;;6.57;4.07;;;19.20;99.90;;;;;;5114235;28;20186;-70
2022/05/19 01:05:57;;;;;;;5.15;3.60;;;19.30;99.90;;;;;;5114478;28;20176;-70
2022/05/19 01:08:40;;;;;;;8.48;4.10;;;19.20;99.90;;;;;;5113887;28;20218;-70
2022/05/19 01:11:07;;;;;;;4.93;3.72;;;19.30;99.90;;;;;;5114260;28;20239;-70
2022/05/19 01:13:34;;;;;;;5.38;3.95;;;19.20;99.90;;;;;;5114034;28;20180;-71
2022/05/19 01:16:03;;;;;;;5.13;3.92;;;19.20;99.90;;;;;;5114510;28;20180;-70
2022/05/19 01:18:30;;;;;;;5.63;4.15;;;19.20;99.90;;;;;;5095897;28;20196;-71
2022/05/19 01:20:58;;;;;;;6.40;3.55;;;19.20;99.90;;;;;;5114140;28;20172;-70
2022/05/19 01:23:58;;;;;;;4.50;3.40;;;19.20;99.90;;;;;;5113869;28;20645;-71
2022/05/19 01:26:42;;;;;;;3.78;3.33;;;19.20;99.90;;;;;;5114408;28;20244;-70
2022/05/19 01:29:10;;;;;;;4.88;3.80;;;19.30;99.90;;;;;;5114219;28;20214;-71
2022/05/19 01:31:44;;;;;;;6.18;3.70;;;19.30;99.90;;;;;;5114005;28;20268;-71
2022/05/19 01:34:11;;;;;;;5.47;3.47;;;19.30;99.90;;;;;;5095753;28;20249;-70
2022/05/19 01:36:37;;;;;;;5.85;3.90;;;19.20;99.90;;;;;;5113692;28;20172;-71
2022/05/19 01:39:12;;;;;;;6.25;3.88;;;19.30;99.90;;;;;;5114062;28;20181;-71
2022/05/19 01:41:44;;;;;;;5.30;3.85;;;19.30;99.90;;;;;;5114157;28;20167;-71
2022/05/19 01:44:33;;;;;;;8.77;3.78;;;19.30;99.90;;;;;;5113971;28;20164;-71
2022/05/19 01:47:15;;;;;;;6.05;3.88;;;19.30;99.90;;;;;;5113971;28;20200;-71
2022/05/19 01:50:04;;;;;;;4.97;3.40;;;19.50;99.90;;;;;;5114545;28;20157;-71
2022/05/19 01:52:54;;;;;;;8.38;3.70;;;19.50;99.90;;;;;;5066532;28;20238;-71
2022/05/19 01:55:45;;;;;;;9.65;4.22;;;19.50;99.90;;;;;;5114265;28;20161;-71
2022/05/19 01:58:36;;;;;;;5.60;4.18;;;19.40;99.90;;;;;;5114732;28;20249;-70
2022/05/19 02:01:05;;;;;;;8.32;3.97;;;19.40;99.90;;;;;;5114073;28;20288;-71
2022/05/19 02:03:53;;;;;;;5.00;3.60;;;19.40;99.90;;;;;;5114888;28;20520;-71
2022/05/19 02:06:28;;;;;;;6.05;3.78;;;19.30;99.90;;;;;;5102196;28;20194;-71
2022/05/19 02:08:58;;;;;;;4.00;3.42;;;19.40;99.90;;;;;;5117410;28;20183;-71
2022/05/19 02:11:30;;;;;;;4.07;3.08;;;19.50;99.90;;;;;;5118088;28;20157;-71
2022/05/19 02:14:00;;;;;;;6.90;3.53;;;19.70;99.90;;;;;;5117583;28;20229;-71
2022/05/19 02:16:30;;;;;;;5.40;3.67;;;19.80;99.90;;;;;;5117565;28;20254;-71
2022/05/19 02:18:56;;;;;;;5.88;3.53;;;19.80;99.90;;;;;;5117961;28;20519;-72
2022/05/19 02:21:22;;;;;;;6.78;3.65;;;20.00;99.90;;;;;;5099339;28;20176;-71
2022/05/19 02:23:48;;;;;;;7.32;3.60;;;20.10;99.90;;;;;;5117349;28;20314;-71
2022/05/19 02:26:14;;;;;;;4.63;3.20;;;20.20;99.90;;;;;;5100012;28;20173;-71
2022/05/19 02:29:01;;;;;;;4.80;3.30;;;20.30;99.90;;;;;;5118088;28;20208;-71
2022/05/19 02:31:27;;;;;;;5.00;3.47;;;20.40;99.90;;;;;;5099752;28;20525;-71
2022/05/19 02:33:52;;;;;;;6.53;3.33;;;20.50;99.90;;;;;;5117364;28;20175;-72
2022/05/19 02:36:18;;;;;;;5.43;3.25;;;20.60;99.90;;;;;;5099201;28;20176;-71
2022/05/19 02:38:44;;;;;;;4.43;3.22;;;20.60;99.90;;;;;;5098567;28;20208;-72
2022/05/19 02:41:10;;;;;;;5.65;3.20;;;20.60;99.90;;;;;;5117881;28;20176;-71
2022/05/19 02:43:36;;;;;;;3.78;3.40;;;20.60;99.90;;;;;;5117209;28;20673;-71
2022/05/19 02:46:01;;;;;;;5.20;3.65;;;20.70;99.90;;;;;;5118618;28;20262;-71
2022/05/19 02:48:28;;;;;;;5.30;3.63;;;20.60;99.90;;;;;;5118468;28;20231;-71
2022/05/19 02:50:53;;;;;;;6.47;3.70;;;20.60;99.90;;;;;;5118560;28;20577;-71
2022/05/19 02:53:20;;;;;;;6.47;3.85;;;20.60;99.90;;;;;;5099575;28;20329;-71
2022/05/19 02:55:46;;;;;;;4.72;3.42;;;20.60;99.90;;;;;;5117482;28;20173;-70
2022/05/19 02:58:14;;;;;;;5.18;3.40;;;20.60;99.90;;;;;;5116988;28;20194;-71
2022/05/19 03:00:43;;;;;;;4.90;3.65;;;20.60;99.90;;;;;;5116789;28;20198;-71
2022/05/19 03:03:09;;;;;;;7.15;3.70;;;20.50;99.90;;;;;;5116710;28;20184;-71
2022/05/19 03:05:35;;;;;;;5.00;3.65;;;20.50;99.90;;;;;;5098894;28;20226;-71
2022/05/19 03:08:01;;;;;;;4.93;3.70;;;20.50;99.90;;;;;;5116824;28;20597;-71
2022/05/19 03:10:27;;;;;;;4.32;3.33;;;20.50;99.90;;;;;;5116579;28;20168;-71
2022/05/19 03:12:55;;;;;;;4.40;3.60;;;20.50;99.90;;;;;;5116848;28;20187;-71
2022/05/19 03:15:22;;;;;;;6.35;3.63;;;20.50;99.90;;;;;;5098040;28;20691;-71
2022/05/19 03:17:47;;;;;;;4.88;3.50;;;20.50;99.90;;;;;;5115707;28;20225;-71
2022/05/19 03:20:14;;;;;;;5.20;3.67;;;20.40;99.90;;;;;;5116254;28;20247;-71
2022/05/19 03:22:40;;;;;;;5.50;3.50;;;20.40;99.90;;;;;;5116291;28;20180;-71
2022/05/19 03:25:07;;;;;;;4.18;3.20;;;20.40;99.90;;;;;;5116091;28;20173;-71
2022/05/19 03:27:34;;;;;;;5.07;3.53;;;20.40;99.90;;;;;;5098220;28;20215;-71
2022/05/19 03:29:59;;;;;;;3.65;3.25;;;20.40;99.90;;;;;;5097987;28;20176;-71
2022/05/19 03:32:25;;;;;;;4.93;3.50;;;20.40;99.90;;;;;;5097889;28;20183;-71
2022/05/19 03:34:51;;;;;;;4.90;3.60;;;20.40;99.90;;;;;;5116168;28;20251;-71
2022/05/19 03:37:16;;;;;;;4.68;3.67;;;20.30;99.90;;;;;;5116002;28;20293;-71
2022/05/19 03:39:42;;;;;;;6.80;3.55;;;20.30;99.90;;;;;;5115681;28;20188;-71
2022/05/19 03:42:09;;;;;;;4.65;3.92;;;20.30;99.90;;;;;;5097245;28;20657;-72
2022/05/19 03:44:36;;;;;;;4.03;3.30;;;20.30;99.90;;;;;;5117352;28;20178;-72
2022/05/19 03:47:02;;;;;;;4.80;3.70;;;20.30;99.90;;;;;;5097274;28;20206;-71
2022/05/19 03:49:28;;;;;;;4.35;3.33;;;20.20;99.90;;;;;;5115977;28;20164;-71
2022/05/19 03:51:54;;;;;;;4.25;3.55;;;20.20;99.90;;;;;;5097141;28;20176;-71
2022/05/19 03:54:20;;;;;;;5.00;3.45;;;20.20;99.90;;;;;;5115132;28;20180;-71
2022/05/19 03:56:46;;;;;;;4.70;3.60;;;20.10;99.90;;;;;;5097437;28;20168;-71
2022/05/19 03:59:11;;;;;;;5.57;3.75;;;20.10;99.90;;;;;;5115524;28;20164;-72
2022/05/19 04:01:37;;;;;;;3.67;3.28;;;20.10;99.90;;;;;;5115562;28;20161;-71
2022/05/19 04:04:03;;;;;;;4.70;3.20;;;20.10;99.90;;;;;;5115207;28;20184;-72
2022/05/19 04:06:29;;;;;;;5.78;3.53;;;20.10;99.90;;;;;;5115127;28;20202;-71
2022/05/19 04:08:55;;;;;;;5.45;3.63;;;20.00;99.90;;;;;;5096611;28;20737;-72
2022/05/19 04:11:21;;;;;;;6.90;4.43;;;19.90;99.90;;;;;;5115145;28;20222;-72
2022/05/19 04:13:47;;;;;;;4.90;3.53;;;19.90;99.90;;;;;;5096819;28;20608;-71
2022/05/19 04:16:12;;;;;;;5.63;3.88;;;19.90;99.90;;;;;;5115013;28;20168;-71
2022/05/19 04:18:39;;;;;;;4.25;3.42;;;19.90;99.90;;;;;;5096607;28;20219;-71
2022/05/19 04:21:05;;;;;;;6.60;3.80;;;19.90;99.90;;;;;;5114706;28;20183;-71
2022/05/19 04:23:31;;;;;;;3.80;3.40;;;19.90;99.90;;;;;;5114336;28;20657;-71
2022/05/19 04:25:56;;;;;;;7.60;3.55;;;19.90;99.90;;;;;;5114730;28;20176;-71
2022/05/19 04:28:22;;;;;;;5.38;4.13;;;19.90;99.90;;;;;;5114406;28;20279;-71
2022/05/19 04:30:48;;;;;;;6.97;3.72;;;19.90;99.90;;;;;;5114907;28;20693;-71
2022/05/19 04:33:14;;;;;;;4.45;3.88;;;19.90;99.90;;;;;;5114586;28;20538;-71
2022/05/19 04:35:39;;;;;;;4.97;3.75;;;19.90;99.90;;;;;;5114743;28;20176;-71
2022/05/19 04:38:17;;;;;;;5.53;3.33;;;19.90;99.90;;;;;;5095949;28;20204;-71
2022/05/19 04:40:49;;;;;;;5.05;3.30;;;19.90;99.90;;;;;;5096276;28;20201;-71
2022/05/19 04:43:22;;;;;;;6.45;3.67;;;19.90;99.90;;;;;;5114976;28;20677;-71
2022/05/19 04:45:49;;;;;;;3.60;3.30;;;19.80;99.90;;;;;;5114558;28;20658;-71
2022/05/19 04:48:15;;;;;;;6.10;3.67;;;19.90;99.90;;;;;;5096003;28;20692;-71
2022/05/19 04:50:41;;;;;;;5.80;3.70;;;19.80;99.90;;;;;;5114910;28;20175;-71
2022/05/19 04:53:06;;;;;;;8.10;3.70;;;19.80;99.90;;;;;;5114455;28;20172;-71
2022/05/19 04:55:35;;;;;;;4.90;3.33;;;19.80;99.90;;;;;;5114582;28;20179;-71
2022/05/19 04:58:01;;;;;;;4.78;3.95;;;19.80;99.90;;;;;;5114176;28;20188;-71
2022/05/19 05:00:27;;;;;;;9.43;3.75;;;19.80;99.90;;;;;;5114197;28;20259;-72
2022/05/19 05:02:53;;;;;;;7.53;4.75;;;19.80;99.90;;;;;;5114669;28;20613;-72
2022/05/19 05:05:18;;;;;;;4.53;3.75;;;19.80;99.90;;;;;;5095864;28;20202;-72
2022/05/19 05:07:44;;;;;;;7.10;4.00;;;19.80;99.90;;;;;;5113874;28;20298;-72
2022/05/19 05:10:10;;;;;;;5.03;3.35;;;19.90;99.90;;;;;;5114122;28;20259;-72
2022/05/19 05:12:36;;;;;;;6.13;4.07;;;19.90;99.90;;;;;;5095639;28;20592;-73
2022/05/19 05:15:02;;;;;;;5.82;4.10;;;19.90;99.90;;;;;;5114178;28;20153;-72
2022/05/19 05:17:28;;;;;;;4.88;3.88;;;20.00;99.90;;;;;;5114017;28;20196;-72
2022/05/19 05:19:54;;;;;;;5.82;4.13;;;20.00;99.90;;;;;;5095659;28;20176;-72
2022/05/19 05:22:19;;;;;;;5.18;4.05;;;20.10;99.90;;;;;;5113700;28;20185;-72
2022/05/19 05:24:45;;;;;;;4.38;3.60;;;20.20;99.90;;;;;;5113926;28;20539;-72
2022/05/19 05:27:11;;;;;;;4.93;3.50;;;20.30;99.90;;;;;;5113919;28;20269;-72
2022/05/19 05:29:36;;;;;;;5.18;3.63;;;20.40;99.90;;;;;;5114000;28;20180;-73
2022/05/19 05:32:03;;;;;;;8.70;4.25;;;20.50;99.90;;;;;;5114148;28;20164;-73
2022/05/19 05:34:29;;;;;;;3.90;3.25;;;20.60;99.90;;;;;;5113746;28;20169;-73
2022/05/19 05:36:54;;;;;;;4.40;3.60;;;20.80;99.90;;;;;;5113712;28;20192;-73
2022/05/19 05:39:20;;;;;;;4.00;3.03;;;20.90;99.90;;;;;;5113414;28;20230;-72
2022/05/19 05:41:46;;;;;;;3.50;3.03;;;21.10;99.90;;;;;;5116243;28;20172;-73
2022/05/19 05:44:12;;;;;;;6.53;3.10;;;21.20;99.90;;;;;;5117689;28;20168;-73
2022/05/19 05:46:38;;;;;;;3.85;3.33;;;21.30;99.90;;;;;;5117729;28;20700;-73
2022/05/19 05:49:05;;;;;;;6.22;3.80;;;21.30;99.90;;;;;;5099233;28;20176;-72
2022/05/19 05:51:30;;;;;;;4.03;3.45;;;21.40;99.90;;;;;;5099307;28;20218;-73
2022/05/19 05:53:56;;;;;;;6.88;3.13;;;21.40;99.90;;;;;;5099086;28;20184;-73
2022/05/19 05:56:22;;;;;;;4.53;3.15;;;21.50;99.90;;;;;;5117448;28;20165;-73
2022/05/19 05:58:48;;;;;;;3.83;3.20;;;21.60;99.90;;;;;;5099092;28;20685;-73
2022/05/19 06:01:18;;;;;;;3.70;2.92;;;21.60;99.90;;;;;;5117333;28;20177;-73
2022/05/19 06:03:45;;;;;;;4.65;2.97;;;21.60;99.90;;;;;;5117510;28;20172;-72
2022/05/19 06:06:11;;;;;;;5.40;2.92;;;21.60;99.90;;;;;;5117901;28;20191;-72
2022/05/19 06:08:38;;;;;;;3.38;2.83;;;21.50;99.90;;;;;;5116894;28;20201;-73
2022/05/19 06:11:08;;;;;;;3.25;2.88;;;21.50;99.90;;;;;;5099253;28;20196;-72
2022/05/19 06:13:34;;;;;;;5.22;3.03;;;21.40;99.90;;;;;;5116984;28;20184;-72
2022/05/19 06:16:00;;;;;;;3.83;2.80;;;21.40;99.90;;;;;;5117441;28;20664;-72
2022/05/19 06:18:26;;;;;;;4.03;2.78;;;21.40;99.90;;;;;;5117456;28;20192;-72
2022/05/19 06:20:52;;;;;;;3.38;2.80;;;21.40;99.90;;;;;;5117157;28;20172;-72
2022/05/19 06:23:18;;;;;;;7.05;3.17;;;21.40;99.90;;;;;;5117041;28;20184;-73
2022/05/19 06:25:45;;;;;;;6.20;3.00;;;21.40;99.90;;;;;;5117074;28;20229;-72
2022/05/19 06:28:11;;;;;;;5.55;2.70;;;21.50;99.90;;;;;;5098553;28;20212;-72
2022/05/19 06:30:37;;;;;;;2.88;2.58;;;21.50;99.90;;;;;;5117042;28;20648;-72
2022/05/19 06:33:02;;;;;;;5.68;2.78;;;21.70;99.90;;;;;;5116942;28;20165;-71
2022/05/19 06:35:30;;;;;;;7.35;3.60;;;21.90;99.90;;;;;;5098598;28;20548;-72
2022/05/19 06:37:56;;;;;;;3.40;2.75;;;22.30;99.90;;;;;;5116614;28;20285;-73
2022/05/19 06:40:24;;;;;;;6.32;3.25;;;22.40;99.90;;;;;;5116913;28;20176;-72
2022/05/19 06:42:51;;;;;;;5.40;3.05;;;22.50;99.90;;;;;;5098752;28;20168;-72
2022/05/19 06:45:19;;;;;;;8.43;3.50;;;22.50;99.90;;;;;;5099615;28;20177;-72
2022/05/19 06:47:46;;;;;;;5.78;3.30;;;22.60;99.90;;;;;;5117306;28;20299;-72
2022/05/19 06:50:13;;;;;;;4.28;3.03;;;22.70;99.90;;;;;;5117414;28;20267;-72
2022/05/19 06:52:45;;;;;;;5.53;3.55;;;22.80;99.90;;;;;;5117031;28;20169;-72
2022/05/19 06:55:12;;;;;;;3.25;2.78;;;22.80;99.90;;;;;;5117870;28;20195;-72
2022/05/19 06:57:38;;;;;;;5.18;3.00;;;22.80;99.90;;;;;;5117830;28;20212;-72
2022/05/19 07:00:06;;;;;;;4.32;2.67;;;22.90;99.90;;;;;;5117312;28;20195;-72
2022/05/19 07:02:32;;;;;;;5.75;2.75;;;23.10;99.90;;;;;;5098599;28;20177;-71
2022/05/19 07:04:57;;;;;;;3.13;2.50;;;23.10;99.90;;;;;;5116888;28;20172;-71
2022/05/19 07:07:24;;;;;;;6.20;2.97;;;23.20;99.90;;;;;;5098189;28;20215;-72
2022/05/19 07:09:49;;;;;;;5.22;2.92;;;23.30;99.90;;;;;;5097804;28;20251;-72
2022/05/19 07:12:22;;;;;;;5.00;3.13;;;23.50;99.90;;;;;;5097929;28;20226;-72
2022/05/19 07:14:47;;;;;;;6.32;3.10;;;23.70;99.90;;;;;;5116133;28;20189;-72
2022/05/19 07:17:13;;;;;;;5.25;2.92;;;23.70;99.90;;;;;;5097780;28;20308;-72
2022/05/19 07:22:23;;;;;;;3.45;2.90;;;23.90;99.90;;;;;;5116682;28;20232;-72
2022/05/19 07:24:50;;;;;;;7.85;3.47;;;23.90;99.90;;;;;;5115791;28;20204;-72
2022/05/19 07:27:16;;;;;;;6.75;3.13;;;23.90;99.90;;;;;;5116107;28;20207;-72
2022/05/19 07:29:42;;;;;;;4.95;3.00;;;24.00;99.90;;;;;;5097520;28;20173;-72
2022/05/19 07:32:09;;;;;;;5.80;3.22;;;24.10;99.90;;;;;;5097518;28;20184;-72
2022/05/19 07:34:37;;;;;;;5.85;3.25;;;24.20;99.90;;;;;;5115702;28;20173;-72
2022/05/19 07:37:04;;;;;;;4.32;2.85;;;24.30;99.90;;;;;;5115706;28;20249;-72
2022/05/19 07:39:30;;;;;;;3.78;3.15;;;24.50;99.90;;;;;;5115254;28;20550;-72
2022/05/19 07:41:56;;;;;;;5.60;3.03;;;24.50;99.90;;;;;;5115602;28;20180;-72
2022/05/19 07:44:27;;;;;;;4.43;2.95;;;24.50;99.90;;;;;;5115643;28;20659;-72
2022/05/19 07:46:53;;;;;;;5.15;3.22;;;24.40;99.90;;;;;;5096903;28;20661;-72
2022/05/19 07:49:18;;;;;;;6.50;3.38;;;24.30;99.90;;;;;;5115625;28;20179;-72
2022/05/19 07:51:45;;;;;;;3.50;2.85;;;24.20;99.90;;;;;;5115993;28;20172;-72
2022/05/19 07:54:16;;;;;;;6.38;3.47;;;24.20;99.90;;;;;;5115052;28;20187;-72
2022/05/19 07:56:43;;;;;;;3.88;3.05;;;24.20;99.90;;;;;;5114972;28;20195;-72
2022/05/19 07:59:10;;;;;;;6.25;3.05;;;24.10;99.90;;;;;;5096821;28;20176;-73
2022/05/19 08:01:38;;;;;;;5.43;2.65;;;24.10;99.90;;;;;;5115290;28;20168;-72
2022/05/19 08:04:05;;;;;;;3.33;2.63;;;24.10;99.90;;;;;;5096237;28;20572;-72
2022/05/19 08:06:31;;;;;;;6.10;2.80;;;24.20;99.90;;;;;;5114883;28;20679;-72
2022/05/19 08:08:58;;;;;;;4.55;3.03;;;24.20;99.90;;;;;;5096038;28;20256;-72
2022/05/19 08:11:24;;;;;;;3.90;2.58;;;24.30;99.90;;;;;;5114786;28;20171;-71
2022/05/19 08:16:35;;;;;;;4.47;3.08;;;24.70;99.90;;;;;;5115321;28;20260;-72
2022/05/19 08:19:02;;;;;;;3.90;2.80;;;24.70;99.90;;;;;;5096338;28;20177;-72
2022/05/19 08:21:28;;;;;;;4.97;2.85;;;24.80;99.90;;;;;;5096275;28;20183;-72
2022/05/19 08:23:54;;;;;;;4.18;3.00;;;24.80;99.90;;;;;;5114506;28;20172;-72
2022/05/19 08:26:20;;;;;;;6.13;3.00;;;24.60;99.90;;;;;;5096163;28;20274;-72
2022/05/19 08:28:49;;;;;;;5.75;3.15;;;24.60;99.90;;;;;;5115315;28;20208;-73
2022/05/19 08:31:20;;;;;;;4.25;2.90;;;24.60;99.90;;;;;;5114324;28;20194;-72
2022/05/19 08:33:48;;;;;;;5.22;3.25;;;24.60;99.90;;;;;;5096064;28;20633;-72
2022/05/19 08:36:14;;;;;;;4.95;2.63;;;24.50;99.90;;;;;;5114232;28;20180;-72
2022/05/19 08:38:41;;;;;;;3.83;2.72;;;24.70;99.90;;;;;;5113962;28;20203;-73
2022/05/19 08:41:06;;;;;;;5.00;3.05;;;24.80;99.90;;;;;;5114330;28;20172;-72
2022/05/19 08:43:58;;;;;;;5.15;2.70;;;24.80;99.90;;;;;;5114553;28;20648;-72
2022/05/19 08:46:30;;;;;;;4.57;3.00;;;25.00;99.90;;;;;;5100355;28;20192;-73
2022/05/19 08:49:01;;;;;;;4.18;2.88;;;25.10;99.90;;;;;;5114084;28;20188;-73
2022/05/19 08:51:35;;;;;;;3.72;2.92;;;25.10;99.90;;;;;;5114528;28;20160;-73
2022/05/19 08:54:07;;;;;;;5.13;3.00;;;25.20;99.90;;;;;;5113850;28;20156;-73
2022/05/19 08:56:39;;;;;;;5.53;3.08;;;25.40;99.90;;;;;;5114204;28;20288;-73
2022/05/19 08:59:23;;;;;;;4.13;3.13;;;25.30;99.90;;;;;;5095914;28;20178;-73
2022/05/19 09:02:20;;;;;;;10.00;3.33;;;25.20;99.90;;;;;;5114382;28;20157;-73
2022/05/19 09:05:16;;;;;;;3.85;2.80;;;25.20;99.90;;;;;;5108983;28;20195;-73
2022/05/19 09:07:56;;;;;;;4.25;3.17;;;25.40;99.90;;;;;;5113999;28;20200;-73
2022/05/19 09:10:37;;;;;;;4.47;2.80;;;25.40;99.90;;;;;;5114509;28;20497;-73
2022/05/19 09:13:09;;;;;;;4.95;2.95;;;25.40;99.90;;;;;;5114161;28;20204;-73
2022/05/19 09:15:36;;;;;;;4.80;3.10;;;25.40;99.90;;;;;;5114582;28;20168;-73
2022/05/19 09:18:02;;;;;;;5.47;3.58;;;25.50;99.90;;;;;;5118144;28;20597;-73
2022/05/19 09:20:50;;;;;;;10.55;3.60;;;25.40;99.90;;;;;;5118257;28;20173;-73
2022/05/19 09:23:15;;;;;;;6.38;3.42;;;25.40;99.90;;;;;;5101406;28;20184;-73
2022/05/19 09:25:49;;;;;;;5.78;3.47;;;25.50;99.90;;;;;;5118034;28;20252;-73
2022/05/19 09:28:15;;;;;;;4.43;3.05;;;25.50;99.90;;;;;;5117930;28;20211;-73
2022/05/19 09:30:50;;;;;;;4.97;2.90;;;25.50;99.90;;;;;;5118057;28;20168;-73
2022/05/19 09:33:20;;;;;;;5.05;3.42;;;25.60;99.90;;;;;;5118272;28;20596;-73
2022/05/19 09:35:55;;;;;;;3.15;2.70;;;25.50;99.90;;;;;;5118245;28;20179;-73
2022/05/19 09:38:36;;;;;;;5.80;2.85;;;25.50;99.90;;;;;;5100144;28;20207;-73
2022/05/19 09:41:21;;;;;;;3.35;2.67;;;25.40;99.90;;;;;;5118229;28;20237;-73
2022/05/19 09:43:55;;;;;;;3.35;2.80;;;25.40;99.90;;;;;;5099867;28;20543;-73
2022/05/19 09:46:22;;;;;;;4.90;3.05;;;25.50;99.90;;;;;;5118021;28;20176;-73
2022/05/19 09:48:51;;;;;;;6.13;3.08;;;25.40;99.90;;;;;;5117777;28;20672;-73
2022/05/19 09:51:19;;;;;;;4.70;2.90;;;25.30;99.90;;;;;;5099406;28;20236;-72
2022/05/19 09:53:57;;;;;;;4.05;3.28;;;25.20;99.90;;;;;;5117416;28;20165;-73
2022/05/19 09:56:33;;;;;;;3.67;2.85;;;25.40;99.90;;;;;;5117574;28;20263;-73
2022/05/19 09:59:15;;;;;;;3.70;2.67;;;25.60;99.90;;;;;;5099349;28;20170;-73
2022/05/19 10:01:45;;;;;;;7.07;3.15;;;26.00;99.90;;;;;;5117657;28;20184;-73
2022/05/19 10:04:41;;;;;;;3.67;2.95;;;26.30;99.90;;;;;;5099355;28;20173;-73
2022/05/19 10:07:22;;;;;;;5.90;3.47;;;26.50;99.90;;;;;;5109217;28;20651;-73
2022/05/19 10:09:48;;;;;;;3.45;2.83;;;26.60;99.90;;;;;;5117629;28;20160;-73
2022/05/19 10:12:25;;;;;;;4.05;2.92;;;26.80;99.90;;;;;;5118132;28;20646;-73
2022/05/19 10:15:00;;;;;;;6.20;2.95;;;26.90;99.90;;;;;;5099466;28;20290;-73
2022/05/19 10:17:53;;;;;;;6.00;3.55;;;27.00;99.90;;;;;;5117753;28;20184;-73
2022/05/19 10:20:29;;;;;;;6.97;3.00;;;27.10;99.90;;;;;;5117322;28;20164;-73
2022/05/19 10:23:27;;;;;;;6.75;3.00;;;27.10;99.90;;;;;;5098981;28;20530;-73
2022/05/19 10:26:20;;;;;;;3.92;2.75;;;27.00;99.90;;;;;;5098737;28;20617;-72
2022/05/19 10:32:36;;;;;;;3.50;3.20;;;26.90;99.90;;;;;;5090798;28;20187;-73
2022/05/19 10:35:20;;;;;;;3.95;2.97;;;26.70;99.90;;;;;;5116813;28;20177;-73
2022/05/19 10:38:11;;;;;;;6.10;3.20;;;26.80;99.90;;;;;;5116824;28;20211;-73
2022/05/19 10:40:54;;;;;;;3.25;2.95;;;26.70;99.90;;;;;;5116424;28;20509;-73
2022/05/19 10:43:38;;;;;;;3.10;2.78;;;26.80;99.90;;;;;;5116586;28;20161;-73
2022/05/19 10:46:08;;;;;;;4.00;2.80;;;27.00;99.90;;;;;;5116515;28;20186;-73
2022/05/19 10:48:57;;;;;;;4.82;3.20;;;27.10;99.90;;;;;;5116573;28;20559;-74
2022/05/19 10:51:29;;;;;;;3.92;2.95;;;27.20;99.90;;;;;;5116888;28;20553;-74
2022/05/19 10:54:02;;;;;;;5.07;3.15;;;27.40;99.90;;;;;;5116086;28;20612;-74
2022/05/19 10:56:43;;;;;;;6.30;3.35;;;27.50;99.90;;;;;;5116656;28;20180;-73
2022/05/19 10:59:35;;;;;;;4.45;2.90;;;27.60;99.90;;;;;;5116190;28;20177;-73
2022/05/19 11:02:12;;;;;;;3.90;3.33;;;27.60;99.90;;;;;;5116414;28;20172;-73
2022/05/19 11:04:49;;;;;;;5.50;3.03;;;27.60;99.90;;;;;;5116450;28;20214;-73
2022/05/19 11:07:23;;;;;;;3.78;2.97;;;27.70;99.90;;;;;;5097870;28;20264;-73
2022/05/19 11:10:04;;;;;;;4.65;3.15;;;28.00;99.90;;;;;;5115800;28;20172;-73
2022/05/19 11:13:08;;;;;;;4.93;3.38;;;28.20;99.90;;;;;;5116141;28;20848;-74
2022/05/19 11:15:39;;;;;;;4.05;3.15;;;28.30;99.90;;;;;;5084523;28;20188;-74
2022/05/19 11:18:32;;;;;;;3.95;3.03;;;28.50;99.90;;;;;;5115955;28;20245;-73
2022/05/19 11:21:07;;;;;;;4.13;3.45;;;28.60;99.90;;;;;;5097724;28;20168;-74
2022/05/19 11:23:51;;;;;;;3.55;3.08;;;28.60;99.90;;;;;;5115373;28;20176;-73
2022/05/19 11:26:38;;;;;;;4.82;3.20;;;28.60;99.90;;;;;;5097320;28;20179;-73
2022/05/19 11:29:06;;;;;;;4.97;3.47;;;28.80;99.90;;;;;;5115856;28;20191;-73
2022/05/19 11:32:03;;;;;;;3.63;3.20;;;29.00;99.90;;;;;;5116115;28;20206;-74
2022/05/19 11:34:51;;;;;;;5.32;3.30;;;29.20;99.90;;;;;;5115565;28;20180;-73
2022/05/19 11:37:44;;;;;;;4.07;3.05;;;29.00;99.90;;;;;;5115750;28;20552;-74
2022/05/19 11:40:29;;;;;;;4.50;3.33;;;28.70;99.90;;;;;;5114466;28;20298;-73
2022/05/19 11:43:02;;;;;;;7.13;3.28;;;28.70;99.90;;;;;;5115176;28;20249;-73
2022/05/19 11:45:58;;;;;;;5.57;4.15;;;29.00;99.90;;;;;;5115277;28;20168;-74
2022/05/19 11:57:47;;;;;;;8.48;3.13;;;29.70;99.90;;;;;;5115289;28;20690;-74
2022/05/19 12:00:21;;;;;;;3.67;3.33;;;30.10;99.90;;;;;;5115551;28;20481;-74
2022/05/19 12:03:04;;;;;;;5.88;2.90;;;29.80;99.90;;;;;;5115543;28;20157;-74
2022/05/19 12:05:36;;;;;;;6.60;3.30;;;29.50;99.90;;;;;;5096817;28;20547;-74
2022/05/19 12:08:28;;;;;;;5.35;3.33;;;29.30;99.90;;;;;;5114777;28;20215;-74
2022/05/19 12:11:10;;;;;;;6.25;3.08;;;29.40;99.90;;;;;;5096367;28;20164;-74
2022/05/19 12:13:36;;;;;;;6.57;3.20;;;29.70;99.90;;;;;;5096311;28;20200;-74
2022/05/19 12:16:15;;;;;;;5.88;3.63;;;29.60;99.90;;;;;;5115084;28;20176;-74
2022/05/19 12:19:00;;;;;;;7.53;2.80;;;29.20;99.90;;;;;;5096453;28;20252;-74
2022/05/19 12:21:55;;;;;;;3.80;3.13;;;29.40;99.90;;;;;;5114651;28;20175;-74
2022/05/19 12:24:26;;;;;;;6.65;3.65;;;29.60;99.90;;;;;;5114472;28;20168;-74
2022/05/19 12:27:11;;;;;;;5.18;3.08;;;30.00;99.90;;;;;;5114664;28;20188;-74
2022/05/19 12:29:53;;;;;;;4.00;3.10;;;30.40;99.90;;;;;;5114825;28;20169;-74
2022/05/19 12:32:37;;;;;;;4.93;3.03;;;30.10;99.90;;;;;;5114619;28;20610;-74
2022/05/19 12:35:08;;;;;;;5.75;3.40;;;29.60;99.90;;;;;;5096127;28;20168;-73
2022/05/19 12:37:50;;;;;;;5.20;3.05;;;29.10;99.90;;;;;;5114363;28;20227;-74
2022/05/19 12:40:25;;;;;;;4.13;3.00;;;28.70;99.90;;;;;;5095755;28;20183;-73
2022/05/19 12:43:15;;;;;;;4.55;3.38;;;28.20;99.90;;;;;;5095925;28;20164;-73
2022/05/19 12:45:51;;;;;;;4.70;2.95;;;27.80;99.90;;;;;;5114263;28;20161;-73
2022/05/19 12:48:18;;;;;;;4.15;2.90;;;27.60;99.90;;;;;;5114362;28;20204;-73
2022/05/19 12:50:51;;;;;;;3.88;2.60;;;27.50;99.90;;;;;;5114191;28;20679;-73
2022/05/19 12:53:23;;;;;;;3.92;2.80;;;27.70;99.90;;;;;;5114161;28;20161;-72
2022/05/19 12:55:57;;;;;;;5.88;2.80;;;28.40;99.90;;;;;;5095737;28;20215;-73
2022/05/19 12:58:35;;;;;;;4.05;2.72;;;29.20;99.90;;;;;;5095938;28;20247;-72
2022/05/19 13:01:45;;;;;;;7.32;2.78;;;29.50;99.90;;;;;;5114119;28;20226;-72
2022/05/19 13:04:12;;;;;;;5.43;2.85;;;29.90;99.90;;;;;;5084680;28;20195;-73
2022/05/19 13:07:03;;;;;;;5.13;3.10;;;30.40;99.90;;;;;;5114066;28;20539;-73
2022/05/19 13:09:33;;;;;;;4.28;2.97;;;30.80;99.90;;;;;;5114067;28;20181;-73
2022/05/19 13:12:43;;;;;;;3.83;3.15;;;30.70;99.90;;;;;;5114521;28;20609;-73
2022/05/19 13:15:09;;;;;;;4.40;2.72;;;31.00;99.90;;;;;;5049318;28;20196;-73
2022/05/19 13:17:40;;;;;;;3.80;2.85;;;30.70;99.90;;;;;;5096028;28;20230;-73
2022/05/19 13:20:14;;;;;;;5.13;2.90;;;30.40;99.90;;;;;;5096283;28;20168;-73
2022/05/19 13:22:39;;;;;;;6.20;2.80;;;30.20;99.90;;;;;;5096041;28;20176;-73
2022/05/19 13:25:11;;;;;;;3.85;2.88;;;29.80;99.90;;;;;;5113970;28;20169;-74
2022/05/19 13:30:41;;;;;;;3.15;2.75;;;29.30;99.90;;;;;;5114927;28;20164;-73